KMSO

Missoula International Airport

Missoula, Montana, USA
METAR KMSO 191453Z 21003KT 3SM HZ FEW100 16/09 A3018 RMK AO2 SLP203 T01560089 51004
Observed Flight Rules
Aug-19 @ 14:53 UTC (46 minutes ago) Marginal Visual Flight Rules
Wind Visibility Clouds Conditions
210° at 3 knots 3 miles
  • Few at 10,000' AGL
  • Haze
Temperatures Readings
Current 16°C / 61°F
Dewpoint 9°C / 48°F
Humidity 63%
Altimeter 30.18" Hg
Pressure 1020.3 hPa
Elevation 975
METAR KMSO 191453Z 21003KT 3SM HZ FEW100 16/09 A3018 RMK AO2 SLP203 T01560089 51004
Observed Flight Rules
Aug-19 @ 14:53 UTC
(46 minutes ago)
MVFR
Wind Visibility
210° at 3 knots 3 miles
Clouds
  • Few at 10,000' AGL
Conditions
  • Haze
Temperature Dewpoint
16°C / 61°F 9°C / 48°F
Humidity Altimeter Pressure
63% 30.18" Hg 1020.3 hPa